sensor_id;sensor_type;location;lat;lon;timestamp;P1;durP1;ratioP1;P2;durP2;ratioP2
51174;SDS011;37240;50.104;20.010;2022-08-04T00:04:00;10.88;;;8.55;;
51174;SDS011;37240;50.104;20.010;2022-08-04T00:09:51;10.57;;;7.60;;
51174;SDS011;37240;50.104;20.010;2022-08-04T00:14:47;9.13;;;8.18;;
51174;SDS011;37240;50.104;20.010;2022-08-04T00:19:52;7.43;;;6.82;;
51174;SDS011;37240;50.104;20.010;2022-08-04T00:24:55;9.15;;;8.25;;
51174;SDS011;37240;50.104;20.010;2022-08-04T00:29:57;10.55;;;8.00;;
51174;SDS011;37240;50.104;20.010;2022-08-04T00:34:58;12.15;;;8.27;;
51174;SDS011;37240;50.104;20.010;2022-08-04T00:39:59;9.10;;;8.10;;
51174;SDS011;37240;50.104;20.010;2022-08-04T00:55:49;11.63;;;8.77;;
51174;SDS011;37240;50.104;20.010;2022-08-04T01:01:04;13.93;;;9.05;;
51174;SDS011;37240;50.104;20.010;2022-08-04T01:11:48;9.95;;;8.85;;
51174;SDS011;37240;50.104;20.010;2022-08-04T01:17:46;11.38;;;8.57;;
51174;SDS011;37240;50.104;20.010;2022-08-04T01:33:24;11.85;;;8.88;;
51174;SDS011;37240;50.104;20.010;2022-08-04T01:43:29;16.25;;;8.63;;
51174;SDS011;37240;50.104;20.010;2022-08-04T01:48:32;10.32;;;8.15;;
51174;SDS011;37240;50.104;20.010;2022-08-04T01:53:40;10.85;;;7.45;;
51174;SDS011;37240;50.104;20.010;2022-08-04T01:58:42;8.45;;;7.68;;
51174;SDS011;37240;50.104;20.010;2022-08-04T02:03:43;11.88;;;8.10;;
51174;SDS011;37240;50.104;20.010;2022-08-04T02:08:49;13.90;;;8.75;;
51174;SDS011;37240;50.104;20.010;2022-08-04T02:14:12;9.98;;;7.57;;
51174;SDS011;37240;50.104;20.010;2022-08-04T02:19:29;12.38;;;6.97;;
51174;SDS011;37240;50.104;20.010;2022-08-04T02:24:36;9.50;;;7.63;;
51174;SDS011;37240;50.104;20.010;2022-08-04T02:39:55;20.10;;;8.95;;
51174;SDS011;37240;50.104;20.010;2022-08-04T02:45:00;60.40;;;33.65;;
51174;SDS011;37240;50.104;20.010;2022-08-04T02:50:01;28.95;;;14.93;;
51174;SDS011;37240;50.104;20.010;2022-08-04T02:55:02;13.57;;;9.52;;
51174;SDS011;37240;50.104;20.010;2022-08-04T03:00:10;9.15;;;8.18;;
51174;SDS011;37240;50.104;20.010;2022-08-04T03:05:18;14.35;;;8.25;;
51174;SDS011;37240;50.104;20.010;2022-08-04T03:10:52;9.25;;;8.20;;
51174;SDS011;37240;50.104;20.010;2022-08-04T03:16:16;10.48;;;8.60;;
51174;SDS011;37240;50.104;20.010;2022-08-04T03:32:48;9.45;;;7.68;;
51174;SDS011;37240;50.104;20.010;2022-08-04T03:53:53;8.30;;;7.03;;
51174;SDS011;37240;50.104;20.010;2022-08-04T04:10:37;11.02;;;6.70;;
51174;SDS011;37240;50.104;20.010;2022-08-04T04:21:02;10.13;;;6.03;;
51174;SDS011;37240;50.104;20.010;2022-08-04T04:27:20;9.77;;;7.10;;
51174;SDS011;37240;50.104;20.010;2022-08-04T04:32:20;9.25;;;6.38;;
51174;SDS011;37240;50.104;20.010;2022-08-04T04:48:11;6.80;;;5.82;;
51174;SDS011;37240;50.104;20.010;2022-08-04T04:53:28;16.48;;;5.82;;
51174;SDS011;37240;50.104;20.010;2022-08-04T04:58:46;9.18;;;5.60;;
51174;SDS011;37240;50.104;20.010;2022-08-04T05:09:17;6.95;;;5.55;;
51174;SDS011;37240;50.104;20.010;2022-08-04T05:14:33;13.48;;;6.13;;
51174;SDS011;37240;50.104;20.010;2022-08-04T05:24:44;12.20;;;6.95;;
51174;SDS011;37240;50.104;20.010;2022-08-04T05:29:50;21.77;;;7.93;;
51174;SDS011;37240;50.104;20.010;2022-08-04T05:34:57;16.05;;;7.50;;
51174;SDS011;37240;50.104;20.010;2022-08-04T05:40:03;23.23;;;7.18;;
51174;SDS011;37240;50.104;20.010;2022-08-04T05:45:06;10.55;;;6.57;;
51174;SDS011;37240;50.104;20.010;2022-08-04T05:50:07;18.27;;;6.90;;
51174;SDS011;37240;50.104;20.010;2022-08-04T05:55:08;31.67;;;8.05;;
51174;SDS011;37240;50.104;20.010;2022-08-04T06:00:10;26.75;;;7.15;;
51174;SDS011;37240;50.104;20.010;2022-08-04T06:05:11;23.27;;;6.72;;
51174;SDS011;37240;50.104;20.010;2022-08-04T06:10:13;28.42;;;5.75;;
51174;SDS011;37240;50.104;20.010;2022-08-04T06:15:16;39.45;;;7.82;;
51174;SDS011;37240;50.104;20.010;2022-08-04T06:20:19;63.40;;;9.27;;
51174;SDS011;37240;50.104;20.010;2022-08-04T06:25:23;35.05;;;6.93;;
51174;SDS011;37240;50.104;20.010;2022-08-04T06:30:26;39.83;;;7.10;;
51174;SDS011;37240;50.104;20.010;2022-08-04T06:35:29;31.05;;;6.00;;
51174;SDS011;37240;50.104;20.010;2022-08-04T06:40:31;19.80;;;5.68;;
51174;SDS011;37240;50.104;20.010;2022-08-04T06:45:34;14.35;;;4.97;;
51174;SDS011;37240;50.104;20.010;2022-08-04T06:50:38;69.95;;;10.98;;
51174;SDS011;37240;50.104;20.010;2022-08-04T06:55:41;44.67;;;7.40;;
51174;SDS011;37240;50.104;20.010;2022-08-04T07:00:44;23.13;;;6.43;;
51174;SDS011;37240;50.104;20.010;2022-08-04T07:05:47;12.18;;;5.55;;
51174;SDS011;37240;50.104;20.010;2022-08-04T07:10:47;12.45;;;5.30;;
51174;SDS011;37240;50.104;20.010;2022-08-04T07:15:49;12.77;;;5.28;;
51174;SDS011;37240;50.104;20.010;2022-08-04T07:20:51;16.25;;;5.38;;
51174;SDS011;37240;50.104;20.010;2022-08-04T07:25:53;15.15;;;5.18;;
51174;SDS011;37240;50.104;20.010;2022-08-04T07:30:55;14.35;;;4.53;;
51174;SDS011;37240;50.104;20.010;2022-08-04T07:35:56;19.92;;;5.88;;
51174;SDS011;37240;50.104;20.010;2022-08-04T07:40:57;9.27;;;5.00;;
51174;SDS011;37240;50.104;20.010;2022-08-04T07:45:58;11.27;;;4.95;;
51174;SDS011;37240;50.104;20.010;2022-08-04T07:50:58;15.63;;;5.63;;
51174;SDS011;37240;50.104;20.010;2022-08-04T07:56:00;16.92;;;4.22;;
51174;SDS011;37240;50.104;20.010;2022-08-04T08:01:01;12.73;;;4.80;;
51174;SDS011;37240;50.104;20.010;2022-08-04T08:06:02;16.83;;;5.88;;
51174;SDS011;37240;50.104;20.010;2022-08-04T08:11:04;14.23;;;4.63;;
51174;SDS011;37240;50.104;20.010;2022-08-04T08:16:05;15.40;;;5.25;;
51174;SDS011;37240;50.104;20.010;2022-08-04T08:21:06;11.63;;;3.47;;
51174;SDS011;37240;50.104;20.010;2022-08-04T08:26:06;9.10;;;3.55;;
51174;SDS011;37240;50.104;20.010;2022-08-04T08:31:07;7.03;;;3.35;;
51174;SDS011;37240;50.104;20.010;2022-08-04T08:36:12;6.25;;;2.45;;
51174;SDS011;37240;50.104;20.010;2022-08-04T08:46:50;4.75;;;2.38;;
51174;SDS011;37240;50.104;20.010;2022-08-04T09:03:09;2.70;;;1.42;;
51174;SDS011;37240;50.104;20.010;2022-08-04T09:13:33;7.80;;;1.83;;
51174;SDS011;37240;50.104;20.010;2022-08-04T09:29:14;2.92;;;2.72;;
51174;SDS011;37240;50.104;20.010;2022-08-04T09:39:36;2.28;;;2.08;;
51174;SDS011;37240;50.104;20.010;2022-08-04T09:44:51;4.35;;;1.83;;
51174;SDS011;37240;50.104;20.010;2022-08-04T09:50:25;15.55;;;2.67;;
51174;SDS011;37240;50.104;20.010;2022-08-04T10:00:56;20.42;;;3.22;;
51174;SDS011;37240;50.104;20.010;2022-08-04T10:22:33;2.47;;;2.38;;
51174;SDS011;37240;50.104;20.010;2022-08-04T10:27:40;7.72;;;2.75;;
51174;SDS011;37240;50.104;20.010;2022-08-04T10:32:57;4.65;;;3.08;;
51174;SDS011;37240;50.104;20.010;2022-08-04T10:38:07;9.73;;;2.47;;
51174;SDS011;37240;50.104;20.010;2022-08-04T10:43:30;13.93;;;3.45;;
51174;SDS011;37240;50.104;20.010;2022-08-04T10:48:52;14.82;;;2.97;;
51174;SDS011;37240;50.104;20.010;2022-08-04T10:54:01;26.25;;;3.03;;
51174;SDS011;37240;50.104;20.010;2022-08-04T10:59:09;52.92;;;3.42;;
51174;SDS011;37240;50.104;20.010;2022-08-04T11:04:16;2.80;;;1.35;;
51174;SDS011;37240;50.104;20.010;2022-08-04T11:09:30;2.00;;;1.80;;
51174;SDS011;37240;50.104;20.010;2022-08-04T11:14:36;2.10;;;1.70;;
51174;SDS011;37240;50.104;20.010;2022-08-04T11:19:58;4.95;;;1.92;;
51174;SDS011;37240;50.104;20.010;2022-08-04T11:25:23;7.68;;;1.50;;
51174;SDS011;37240;50.104;20.010;2022-08-04T11:30:30;1.52;;;1.42;;
51174;SDS011;37240;50.104;20.010;2022-08-04T11:35:51;2.75;;;1.67;;
51174;SDS011;37240;50.104;20.010;2022-08-04T11:41:03;2.05;;;1.90;;
51174;SDS011;37240;50.104;20.010;2022-08-04T11:46:12;2.20;;;1.45;;
51174;SDS011;37240;50.104;20.010;2022-08-04T11:51:17;14.65;;;2.95;;
51174;SDS011;37240;50.104;20.010;2022-08-04T11:56:19;1.83;;;1.73;;
51174;SDS011;37240;50.104;20.010;2022-08-04T12:17:14;4.97;;;1.77;;
51174;SDS011;37240;50.104;20.010;2022-08-04T12:22:21;4.03;;;2.22;;
51174;SDS011;37240;50.104;20.010;2022-08-04T12:27:24;4.07;;;1.92;;
51174;SDS011;37240;50.104;20.010;2022-08-04T12:32:35;9.52;;;2.72;;
51174;SDS011;37240;50.104;20.010;2022-08-04T12:37:46;8.07;;;1.88;;
51174;SDS011;37240;50.104;20.010;2022-08-04T12:42:55;12.73;;;1.90;;
51174;SDS011;37240;50.104;20.010;2022-08-04T12:48:04;4.78;;;2.20;;
51174;SDS011;37240;50.104;20.010;2022-08-04T12:53:12;2.30;;;2.08;;
51174;SDS011;37240;50.104;20.010;2022-08-04T12:58:15;8.73;;;2.70;;
51174;SDS011;37240;50.104;20.010;2022-08-04T13:03:17;2.55;;;1.95;;
51174;SDS011;37240;50.104;20.010;2022-08-04T13:08:20;9.07;;;1.95;;
51174;SDS011;37240;50.104;20.010;2022-08-04T13:13:23;1.95;;;1.85;;
51174;SDS011;37240;50.104;20.010;2022-08-04T13:18:26;4.20;;;1.48;;
51174;SDS011;37240;50.104;20.010;2022-08-04T13:23:32;1.90;;;1.63;;
51174;SDS011;37240;50.104;20.010;2022-08-04T13:28:32;7.07;;;2.47;;
51174;SDS011;37240;50.104;20.010;2022-08-04T13:33:38;2.13;;;1.63;;
51174;SDS011;37240;50.104;20.010;2022-08-04T13:43:56;5.07;;;1.90;;
51174;SDS011;37240;50.104;20.010;2022-08-04T13:49:00;1.55;;;1.40;;
51174;SDS011;37240;50.104;20.010;2022-08-04T13:54:01;2.88;;;1.45;;
51174;SDS011;37240;50.104;20.010;2022-08-04T13:59:02;8.52;;;2.20;;
51174;SDS011;37240;50.104;20.010;2022-08-04T14:04:11;4.53;;;1.77;;
51174;SDS011;37240;50.104;20.010;2022-08-04T14:09:18;10.95;;;2.25;;
51174;SDS011;37240;50.104;20.010;2022-08-04T14:14:21;4.47;;;1.98;;
51174;SDS011;37240;50.104;20.010;2022-08-04T14:19:23;9.23;;;1.60;;
51174;SDS011;37240;50.104;20.010;2022-08-04T14:24:25;10.30;;;2.10;;
51174;SDS011;37240;50.104;20.010;2022-08-04T14:29:35;61.47;;;5.93;;
51174;SDS011;37240;50.104;20.010;2022-08-04T14:34:37;40.13;;;6.43;;
51174;SDS011;37240;50.104;20.010;2022-08-04T14:39:42;5.72;;;1.20;;
51174;SDS011;37240;50.104;20.010;2022-08-04T14:44:51;7.15;;;2.22;;
51174;SDS011;37240;50.104;20.010;2022-08-04T14:49:55;3.47;;;1.48;;
51174;SDS011;37240;50.104;20.010;2022-08-04T14:54:56;14.15;;;2.03;;
51174;SDS011;37240;50.104;20.010;2022-08-04T14:59:56;4.72;;;2.30;;
51174;SDS011;37240;50.104;20.010;2022-08-04T15:04:57;10.85;;;2.05;;
51174;SDS011;37240;50.104;20.010;2022-08-04T15:09:59;14.00;;;2.10;;
51174;SDS011;37240;50.104;20.010;2022-08-04T15:14:59;3.75;;;1.75;;
51174;SDS011;37240;50.104;20.010;2022-08-04T15:20:00;6.53;;;2.30;;
51174;SDS011;37240;50.104;20.010;2022-08-04T15:25:01;23.17;;;2.55;;
51174;SDS011;37240;50.104;20.010;2022-08-04T15:30:03;8.32;;;1.98;;
51174;SDS011;37240;50.104;20.010;2022-08-04T15:35:10;3.63;;;1.90;;
51174;SDS011;37240;50.104;20.010;2022-08-04T15:45:17;34.75;;;4.88;;
51174;SDS011;37240;50.104;20.010;2022-08-04T15:55:35;6.30;;;1.92;;
51174;SDS011;37240;50.104;20.010;2022-08-04T16:05:47;2.17;;;1.33;;
51174;SDS011;37240;50.104;20.010;2022-08-04T16:10:48;2.08;;;1.70;;
51174;SDS011;37240;50.104;20.010;2022-08-04T16:20:52;12.60;;;1.55;;
51174;SDS011;37240;50.104;20.010;2022-08-04T16:25:54;1.38;;;1.30;;
51174;SDS011;37240;50.104;20.010;2022-08-04T16:30:58;1.45;;;1.33;;
51174;SDS011;37240;50.104;20.010;2022-08-04T16:36:00;1.88;;;1.77;;
51174;SDS011;37240;50.104;20.010;2022-08-04T16:41:01;10.98;;;1.90;;
51174;SDS011;37240;50.104;20.010;2022-08-04T16:46:02;1.75;;;1.65;;
51174;SDS011;37240;50.104;20.010;2022-08-04T16:51:04;4.25;;;2.22;;
51174;SDS011;37240;50.104;20.010;2022-08-04T16:56:09;1.63;;;1.52;;
51174;SDS011;37240;50.104;20.010;2022-08-04T17:01:12;4.10;;;1.45;;
51174;SDS011;37240;50.104;20.010;2022-08-04T17:06:15;4.90;;;1.73;;
51174;SDS011;37240;50.104;20.010;2022-08-04T17:11:15;6.05;;;2.05;;
51174;SDS011;37240;50.104;20.010;2022-08-04T17:16:16;2.13;;;2.03;;
51174;SDS011;37240;50.104;20.010;2022-08-04T17:21:18;5.45;;;1.48;;
51174;SDS011;37240;50.104;20.010;2022-08-04T17:26:24;3.92;;;2.10;;
51174;SDS011;37240;50.104;20.010;2022-08-04T17:31:30;6.50;;;2.05;;
51174;SDS011;37240;50.104;20.010;2022-08-04T17:36:32;6.05;;;1.40;;
51174;SDS011;37240;50.104;20.010;2022-08-04T17:41:33;5.05;;;2.13;;
51174;SDS011;37240;50.104;20.010;2022-08-04T17:51:55;4.35;;;2.20;;
51174;SDS011;37240;50.104;20.010;2022-08-04T17:56:58;3.70;;;2.17;;
51174;SDS011;37240;50.104;20.010;2022-08-04T18:02:13;2.80;;;1.95;;
51174;SDS011;37240;50.104;20.010;2022-08-04T18:07:34;6.78;;;1.98;;
51174;SDS011;37240;50.104;20.010;2022-08-04T18:12:36;12.00;;;2.13;;
51174;SDS011;37240;50.104;20.010;2022-08-04T18:22:42;7.07;;;3.13;;
51174;SDS011;37240;50.104;20.010;2022-08-04T18:27:52;7.47;;;2.50;;
51174;SDS011;37240;50.104;20.010;2022-08-04T18:32:54;9.32;;;2.90;;
51174;SDS011;37240;50.104;20.010;2022-08-04T18:37:54;7.57;;;2.95;;
51174;SDS011;37240;50.104;20.010;2022-08-04T18:42:55;5.40;;;3.70;;
51174;SDS011;37240;50.104;20.010;2022-08-04T18:47:56;7.82;;;2.72;;
51174;SDS011;37240;50.104;20.010;2022-08-04T18:52:56;4.68;;;3.78;;
51174;SDS011;37240;50.104;20.010;2022-08-04T18:57:56;7.03;;;3.85;;
51174;SDS011;37240;50.104;20.010;2022-08-04T19:02:57;14.57;;;3.03;;
51174;SDS011;37240;50.104;20.010;2022-08-04T19:07:57;4.05;;;3.22;;
51174;SDS011;37240;50.104;20.010;2022-08-04T19:12:58;4.28;;;3.67;;
51174;SDS011;37240;50.104;20.010;2022-08-04T19:17:58;11.13;;;5.82;;
51174;SDS011;37240;50.104;20.010;2022-08-04T19:22:59;12.30;;;5.03;;
51174;SDS011;37240;50.104;20.010;2022-08-04T19:27:59;12.75;;;5.32;;
51174;SDS011;37240;50.104;20.010;2022-08-04T19:33:00;10.65;;;4.75;;
51174;SDS011;37240;50.104;20.010;2022-08-04T19:38:00;5.78;;;3.90;;
51174;SDS011;37240;50.104;20.010;2022-08-04T19:43:01;8.70;;;4.10;;
51174;SDS011;37240;50.104;20.010;2022-08-04T19:48:02;4.07;;;3.67;;
51174;SDS011;37240;50.104;20.010;2022-08-04T19:53:03;9.20;;;3.40;;
51174;SDS011;37240;50.104;20.010;2022-08-04T19:58:05;14.70;;;10.82;;
51174;SDS011;37240;50.104;20.010;2022-08-04T20:03:07;10.85;;;7.88;;
51174;SDS011;37240;50.104;20.010;2022-08-04T20:08:08;5.00;;;4.60;;
51174;SDS011;37240;50.104;20.010;2022-08-04T20:13:09;8.00;;;4.18;;
51174;SDS011;37240;50.104;20.010;2022-08-04T20:18:09;4.10;;;3.50;;
51174;SDS011;37240;50.104;20.010;2022-08-04T20:23:10;5.32;;;3.17;;
51174;SDS011;37240;50.104;20.010;2022-08-04T20:28:10;2.65;;;2.38;;
51174;SDS011;37240;50.104;20.010;2022-08-04T20:33:11;4.35;;;3.00;;
51174;SDS011;37240;50.104;20.010;2022-08-04T20:38:11;8.23;;;2.78;;
51174;SDS011;37240;50.104;20.010;2022-08-04T20:43:12;3.90;;;2.60;;
51174;SDS011;37240;50.104;20.010;2022-08-04T20:48:12;8.05;;;5.45;;
51174;SDS011;37240;50.104;20.010;2022-08-04T20:53:13;10.10;;;7.63;;
51174;SDS011;37240;50.104;20.010;2022-08-04T20:58:14;13.23;;;5.47;;
51174;SDS011;37240;50.104;20.010;2022-08-04T21:03:14;3.50;;;2.90;;
51174;SDS011;37240;50.104;20.010;2022-08-04T21:08:15;2.97;;;2.78;;
51174;SDS011;37240;50.104;20.010;2022-08-04T21:13:15;4.25;;;2.50;;
51174;SDS011;37240;50.104;20.010;2022-08-04T21:18:16;3.13;;;2.75;;
51174;SDS011;37240;50.104;20.010;2022-08-04T21:23:16;3.10;;;2.30;;
51174;SDS011;37240;50.104;20.010;2022-08-04T21:28:17;4.45;;;2.72;;
51174;SDS011;37240;50.104;20.010;2022-08-04T21:33:17;10.70;;;2.72;;
51174;SDS011;37240;50.104;20.010;2022-08-04T21:38:19;4.35;;;2.60;;
51174;SDS011;37240;50.104;20.010;2022-08-04T21:43:23;3.05;;;2.85;;
51174;SDS011;37240;50.104;20.010;2022-08-04T21:48:25;3.80;;;2.75;;
51174;SDS011;37240;50.104;20.010;2022-08-04T21:53:26;4.63;;;2.72;;
51174;SDS011;37240;50.104;20.010;2022-08-04T21:58:26;3.17;;;2.85;;
51174;SDS011;37240;50.104;20.010;2022-08-04T22:03:27;4.75;;;2.63;;
51174;SDS011;37240;50.104;20.010;2022-08-04T22:08:27;6.55;;;3.55;;
51174;SDS011;37240;50.104;20.010;2022-08-04T22:13:28;5.65;;;2.53;;
51174;SDS011;37240;50.104;20.010;2022-08-04T22:18:28;4.68;;;2.60;;
51174;SDS011;37240;50.104;20.010;2022-08-04T22:23:29;4.35;;;3.33;;
51174;SDS011;37240;50.104;20.010;2022-08-04T22:28:30;10.90;;;3.70;;
51174;SDS011;37240;50.104;20.010;2022-08-04T22:33:30;7.97;;;2.90;;
51174;SDS011;37240;50.104;20.010;2022-08-04T22:38:31;13.73;;;3.83;;
51174;SDS011;37240;50.104;20.010;2022-08-04T22:43:32;7.72;;;3.70;;
51174;SDS011;37240;50.104;20.010;2022-08-04T22:48:34;5.15;;;3.53;;
51174;SDS011;37240;50.104;20.010;2022-08-04T22:53:36;5.20;;;3.28;;
51174;SDS011;37240;50.104;20.010;2022-08-04T22:58:37;3.35;;;2.97;;
51174;SDS011;37240;50.104;20.010;2022-08-04T23:03:42;10.98;;;3.42;;
51174;SDS011;37240;50.104;20.010;2022-08-04T23:08:43;6.57;;;4.22;;
51174;SDS011;37240;50.104;20.010;2022-08-04T23:13:44;3.78;;;3.47;;
51174;SDS011;37240;50.104;20.010;2022-08-04T23:18:44;5.75;;;3.95;;
51174;SDS011;37240;50.104;20.010;2022-08-04T23:23:45;11.27;;;3.63;;
51174;SDS011;37240;50.104;20.010;2022-08-04T23:28:45;6.20;;;3.50;;
51174;SDS011;37240;50.104;20.010;2022-08-04T23:33:46;7.50;;;3.92;;
51174;SDS011;37240;50.104;20.010;2022-08-04T23:38:46;8.38;;;4.28;;
51174;SDS011;37240;50.104;20.010;2022-08-04T23:43:47;8.23;;;4.28;;
51174;SDS011;37240;50.104;20.010;2022-08-04T23:48:47;5.30;;;3.97;;
51174;SDS011;37240;50.104;20.010;2022-08-04T23:53:48;6.75;;;3.50;;
51174;SDS011;37240;50.104;20.010;2022-08-04T23:58:48;4.53;;;3.42;;
